Time,TemperatureF,DewpointF,PressureIn,WindDirection,WindDirectionDegrees,WindSpeedMPH,WindSpeedGustMPH,Humidity,HourlyPrecipIn,Conditions,Clouds,dailyrainin,SoftwareType,DateUTC
2013-04-18 03:06:00,33.1,23.0,30.30,SE,140,0.0,3.0,66,0.00,,,0.00,Wunderground v.1.15,2013-04-18 07:06:00,
2013-04-18 03:16:00,32.8,23.4,30.31,SE,140,1.0,1.0,68,0.00,,,0.00,Wunderground v.1.15,2013-04-18 07:16:00,
2013-04-18 04:06:00,32.4,23.7,30.34,SE,140,1.0,1.0,70,0.00,,,0.00,Wunderground v.1.15,2013-04-18 08:06:00,
2013-04-18 04:16:00,32.2,23.5,30.36,SE,140,1.0,2.0,70,0.00,,,0.00,Wunderground v.1.15,2013-04-18 08:16:00,
2013-04-18 04:26:00,31.9,22.9,30.36,SE,140,1.0,2.0,69,0.00,,,0.00,Wunderground v.1.15,2013-04-18 08:26:00,
2013-04-18 05:06:00,31.9,23.2,30.36,SE,140,1.0,3.0,70,0.00,,,0.00,Wunderground v.1.15,2013-04-18 09:06:00,
2013-04-18 05:16:00,31.6,23.3,30.36,West,263,3.0,3.0,71,0.00,,,0.00,Wunderground v.1.15,2013-04-18 09:16:00,
2013-04-18 05:36:00,31.9,22.9,30.36,WNW,285,0.0,4.0,69,0.00,,,0.00,Wunderground v.1.15,2013-04-18 09:36:00,
2013-04-18 05:46:00,31.8,23.1,30.36,WNW,285,0.0,4.0,70,0.00,,,0.00,Wunderground v.1.15,2013-04-18 09:46:00,
2013-04-18 05:56:00,31.9,22.5,30.36,WNW,285,1.0,1.0,68,0.00,,,0.00,Wunderground v.1.15,2013-04-18 09:56:00,
2013-04-18 07:06:00,33.7,24.3,30.38,South,172,1.0,1.0,68,0.00,,,0.00,Wunderground v.1.15,2013-04-18 11:06:00,
2013-04-18 07:26:00,34.9,24.7,30.39,South,172,0.0,3.0,66,0.00,,,0.00,Wunderground v.1.15,2013-04-18 11:26:00,
2013-04-18 08:06:00,36.9,26.2,30.40,SE,129,0.0,3.0,65,0.00,,,0.00,Wunderground v.1.15,2013-04-18 12:06:00,
2013-04-18 08:16:00,37.5,26.4,30.40,SE,129,0.0,3.0,64,0.00,,,0.00,Wunderground v.1.15,2013-04-18 12:16:00,
2013-04-18 08:26:00,38.5,27.4,30.40,SE,129,0.0,3.0,64,0.00,,,0.00,Wunderground v.1.15,2013-04-18 12:26:00,
2013-04-18 09:06:00,43.2,21.6,30.37,East,101,3.0,9.0,42,0.00,,,0.00,Wunderground v.1.15,2013-04-18 13:06:00,
2013-04-18 09:16:00,43.3,17.4,30.37,ESE,117,4.0,9.0,35,0.00,,,0.00,Wunderground v.1.15,2013-04-18 13:16:00,
2013-04-18 09:26:00,42.6,16.8,30.37,SE,131,5.0,5.0,35,0.00,,,0.00,Wunderground v.1.15,2013-04-18 13:26:00,
2013-04-18 10:06:00,41.9,18.1,30.36,SE,134,3.0,11.0,38,0.00,,,0.00,Wunderground v.1.15,2013-04-18 14:06:00,
2013-04-18 10:16:00,42.2,18.4,30.37,SE,132,3.0,11.0,38,0.00,,,0.00,Wunderground v.1.15,2013-04-18 14:16:00,
2013-04-18 10:26:00,41.8,18.0,30.37,SSE,149,6.0,6.0,38,0.00,,,0.00,Wunderground v.1.15,2013-04-18 14:26:00,
2013-04-18 10:35:00,41.3,18.2,30.36,SE,132,4.0,12.0,39,0.00,,,0.00,Wunderground v.1.15,2013-04-18 14:35:00,
2013-04-18 10:45:00,41.5,19.5,30.36,SSE,157,3.0,3.0,41,0.00,,,0.00,Wunderground v.1.15,2013-04-18 14:45:00,
2013-04-18 10:56:00,41.5,18.9,30.36,SE,132,4.0,12.0,40,0.00,,,0.00,Wunderground v.1.15,2013-04-18 14:56:00,
2013-04-18 11:26:00,44.2,20.2,30.35,ESE,120,2.0,10.0,38,0.00,,,0.00,Wunderground v.1.15,2013-04-18 15:26:00,
2013-04-18 11:56:00,45.1,19.7,30.34,ESE,108,4.0,9.0,36,0.00,,,0.00,Wunderground v.1.15,2013-04-18 15:56:00,
2013-04-18 12:56:00,47.1,21.5,30.30,SSE,150,1.0,10.0,36,0.00,,,0.00,Wunderground v.1.15,2013-04-18 16:56:00,
2013-04-18 13:36:00,47.9,25.9,30.28,SSE,156,2.0,11.0,42,0.00,,,0.00,Wunderground v.1.15,2013-04-18 17:36:00,
2013-04-18 13:46:00,47.1,24.0,30.28,SE,133,3.0,3.0,40,0.00,,,0.00,Wunderground v.1.15,2013-04-18 17:46:00,
2013-04-18 15:06:00,49.1,25.2,30.24,SE,140,3.0,12.0,39,0.00,,,0.00,Wunderground v.1.15,2013-04-18 19:06:00,
2013-04-18 15:16:00,48.6,25.3,30.23,SE,126,8.0,12.0,40,0.00,,,0.00,Wunderground v.1.15,2013-04-18 19:16:00,
2013-04-18 15:26:00,48.6,26.5,30.23,SE,132,6.0,6.0,42,0.00,,,0.00,Wunderground v.1.15,2013-04-18 19:26:00,
2013-04-18 16:06:00,49.6,26.2,30.20,SSE,165,4.0,14.0,40,0.00,,,0.00,Wunderground v.1.15,2013-04-18 20:06:00,
2013-04-18 16:16:00,50.1,26.7,30.19,SE,130,3.0,14.0,40,0.00,,,0.00,Wunderground v.1.15,2013-04-18 20:16:00,
2013-04-18 16:26:00,49.9,25.9,30.19,SE,140,4.0,14.0,39,0.00,,,0.00,Wunderground v.1.15,2013-04-18 20:26:00,
2013-04-18 17:36:00,49.2,27.6,30.18,East,82,3.0,15.0,43,0.00,,,0.00,Wunderground v.1.15,2013-04-18 21:36:00,
2013-04-18 17:46:00,48.9,27.9,30.18,SW,224,3.0,15.0,44,0.00,,,0.00,Wunderground v.1.15,2013-04-18 21:46:00,
2013-04-18 17:56:00,49.1,28.7,30.18,SE,130,2.0,2.0,45,0.00,,,0.00,Wunderground v.1.15,2013-04-18 21:56:00,
2013-04-18 18:46:00,47.7,30.4,30.14,SE,146,5.0,5.0,51,0.00,,,0.00,Wunderground v.1.15,2013-04-18 22:46:00,
2013-04-18 18:56:00,47.4,30.2,30.14,South,182,3.0,3.0,51,0.00,,,0.00,Wunderground v.1.15,2013-04-18 22:56:00,
2013-04-18 19:36:00,46.5,31.2,30.14,SSE,148,4.0,4.0,55,0.00,,,0.00,Wunderground v.1.15,2013-04-18 23:36:00,
2013-04-18 20:06:00,46.0,32.0,30.14,SE,126,1.0,9.0,58,0.00,,,0.00,Wunderground v.1.15,2013-04-19 00:06:00,
2013-04-18 20:16:00,45.7,32.2,30.13,SSE,153,3.0,9.0,59,0.00,,,0.00,Wunderground v.1.15,2013-04-19 00:16:00,
2013-04-18 20:26:00,45.5,32.0,30.13,SE,131,2.0,9.0,59,0.00,,,0.00,Wunderground v.1.15,2013-04-19 00:26:00,
2013-04-18 21:06:00,45.2,32.5,30.13,SSE,150,1.0,1.0,61,0.00,,,0.00,Wunderground v.1.15,2013-04-19 01:06:00,
2013-04-18 21:16:00,45.1,32.4,30.12,SSE,150,0.0,6.0,61,0.00,,,0.00,Wunderground v.1.15,2013-04-19 01:16:00,
2013-04-18 21:26:00,45.1,32.8,30.12,SSE,150,0.0,6.0,62,0.00,,,0.00,Wunderground v.1.15,2013-04-19 01:26:00,
2013-04-18 21:46:00,44.9,32.7,30.11,SSE,150,0.0,3.0,62,0.00,,,0.00,Wunderground v.1.15,2013-04-19 01:46:00,
2013-04-18 21:56:00,44.9,33.1,30.11,SSE,150,0.0,3.0,63,0.00,,,0.00,Wunderground v.1.15,2013-04-19 01:56:00,
2013-04-18 22:06:00,44.9,33.1,30.10,SSE,150,0.0,2.0,63,0.00,,,0.00,Wunderground v.1.15,2013-04-19 02:06:00,
2013-04-18 22:16:00,44.8,33.0,30.10,SSE,150,0.0,2.0,63,0.00,,,0.00,Wunderground v.1.15,2013-04-19 02:16:00,
2013-04-18 22:26:00,44.8,33.4,30.10,SSE,150,0.0,2.0,64,0.00,,,0.00,Wunderground v.1.15,2013-04-19 02:26:00,
2013-04-18 23:06:00,44.3,33.7,30.08,SSE,150,0.0,4.0,66,0.00,,,0.00,Wunderground v.1.15,2013-04-19 03:06:00,
2013-04-18 23:16:00,44.3,33.7,30.07,SSE,150,1.0,4.0,66,0.00,,,0.00,Wunderground v.1.15,2013-04-19 03:16:00,
2013-04-18 23:26:00,44.5,34.2,30.07,SSE,150,0.0,4.0,67,0.00,,,0.00,Wunderground v.1.15,2013-04-19 03:26:00,
2013-04-18 23:46:00,44.2,33.9,30.05,North,9,1.0,1.0,67,0.00,,,0.00,Wunderground v.1.15,2013-04-19 03:46:00,